Time;durP1;ratioP1;P1;durP2;ratioP2;P2;SDS_P1;SDS_P2;PMS_P1;PMS_P2;Temp;Humidity;BMP_temperature;BMP_pressure;BME280_temperature;BME280_humidity;BME280_pressure;Samples;Min_cycle;Max_cycle;Signal;HPM_P1;HPM_P2
2021/05/24 00:01:24;;;;;;;;;;;12.90;75.00;;;;;;4318674;33;19998;-75
2021/05/24 00:03:51;;;;;;;;;;;12.90;75.00;;;;;;4318684;33;20037;-75
2021/05/24 00:06:18;;;;;;;;;;;12.90;74.80;;;;;;4319005;33;20024;-75
2021/05/24 00:08:47;;;;;;;;;;;13.00;74.90;;;;;;4304912;33;19994;-75
2021/05/24 00:11:18;;;;;;;;;;;13.00;74.80;;;;;;4305802;33;20359;-75
2021/05/24 00:13:55;;;;;;;;;;;13.00;75.00;;;;;;4318499;33;20065;-74
2021/05/24 00:16:23;;;;;;;;;;;12.90;75.00;;;;;;4305385;33;20378;-75
2021/05/24 00:18:53;;;;;;;;;;;12.90;75.00;;;;;;4305046;33;20430;-75
2021/05/24 00:21:21;;;;;;;;;;;12.90;75.10;;;;;;4318609;33;20079;-75
2021/05/24 00:23:48;;;;;;;;;;;12.90;75.70;;;;;;4305549;33;20024;-75
2021/05/24 00:26:15;;;;;;;;;;;12.80;75.80;;;;;;4293575;33;20001;-75
2021/05/24 00:28:43;;;;;;;;;;;12.80;75.90;;;;;;4318415;33;20040;-75
2021/05/24 00:31:10;;;;;;;;;;;12.70;75.90;;;;;;4305418;33;20113;-75
2021/05/24 00:33:37;;;;;;;;;;;12.70;76.30;;;;;;4305369;33;20014;-75
2021/05/24 00:36:04;;;;;;;;;;;12.70;76.30;;;;;;4305194;33;20006;-75
2021/05/24 00:38:31;;;;;;;;;;;12.70;76.30;;;;;;4318108;33;20043;-75
2021/05/24 00:40:58;;;;;;;;;;;12.70;76.40;;;;;;4293043;33;20061;-75
2021/05/24 00:43:28;;;;;;;;;;;12.70;76.50;;;;;;4318118;33;20032;-75
2021/05/24 00:45:58;;;;;;;;;;;12.70;76.70;;;;;;4304842;33;19994;-75
2021/05/24 00:48:28;;;;;;;;;;;12.70;76.60;;;;;;4318348;33;19999;-75
2021/05/24 00:50:55;;;;;;;;;;;12.70;76.90;;;;;;4318200;33;20425;-75
2021/05/24 00:53:22;;;;;;;;;;;12.60;76.80;;;;;;4304757;33;20050;-75
2021/05/24 00:55:49;;;;;;;;;;;12.70;76.80;;;;;;4318328;33;20001;-75
2021/05/24 00:58:16;;;;;;;;;;;12.70;77.20;;;;;;4304703;33;20002;-75
2021/05/24 01:00:46;;;;;;;;;;;12.70;77.20;;;;;;4305230;33;20013;-75
2021/05/24 01:03:16;;;;;;;;;;;12.60;77.10;;;;;;4303626;33;27750;-75
2021/05/24 01:05:46;;;;;;;;;;;12.70;77.50;;;;;;4317840;33;20017;-75
2021/05/24 01:08:14;;;;;;;;;;;12.70;77.50;;;;;;4304222;33;20012;-75
2021/05/24 01:10:41;;;;;;;;;;;12.60;77.50;;;;;;4304624;33;20125;-75
2021/05/24 01:13:11;;;;;;;;;;;12.70;77.40;;;;;;4292724;33;19998;-75
2021/05/24 01:15:39;;;;;;;;;;;12.70;77.50;;;;;;4304930;33;20028;-75
2021/05/24 01:18:07;;;;;;;;;;;12.70;77.70;;;;;;4317857;33;20009;-75
2021/05/24 01:20:37;;;;;;;;;;;12.70;77.50;;;;;;4317468;33;19998;-75
2021/05/24 01:25:37;;;;;;;;;;;12.70;77.40;;;;;;4304684;33;20057;-75
2021/05/24 01:28:05;;;;;;;;;;;12.70;77.50;;;;;;4317949;33;20006;-75
2021/05/24 01:30:34;;;;;;;;;;;12.70;77.70;;;;;;4304548;33;20005;-75
2021/05/24 01:33:02;;;;;;;;;;;12.70;77.60;;;;;;4304235;33;20437;-75
2021/05/24 01:35:30;;;;;;;;;;;12.80;77.60;;;;;;4317794;33;20045;-75
2021/05/24 01:37:58;;;;;;;;;;;12.80;77.60;;;;;;4292052;33;20002;-75
2021/05/24 01:40:25;;;;;;;;;;;12.80;77.60;;;;;;4317817;33;20020;-74
2021/05/24 01:42:56;;;;;;;;;;;12.80;77.60;;;;;;4304854;33;20006;-75
2021/05/24 01:45:24;;;;;;;;;;;12.80;77.80;;;;;;4292237;33;20002;-75
2021/05/24 01:47:56;;;;;;;;;;;12.80;77.80;;;;;;4317670;33;20020;-75
2021/05/24 01:50:26;;;;;;;;;;;12.80;77.80;;;;;;4317347;33;20045;-75
2021/05/24 01:52:56;;;;;;;;;;;12.80;77.90;;;;;;4303985;33;20002;-75
2021/05/24 01:55:25;;;;;;;;;;;12.70;78.00;;;;;;4317434;33;20411;-75
2021/05/24 01:57:55;;;;;;;;;;;12.80;77.80;;;;;;4292250;33;20014;-75
2021/05/24 02:00:27;;;;;;;;;;;12.80;77.80;;;;;;4317486;33;20024;-75
2021/05/24 02:02:57;;;;;;;;;;;12.80;77.90;;;;;;4303990;33;20010;-75
2021/05/24 02:05:29;;;;;;;;;;;12.80;78.00;;;;;;4304277;33;20085;-75
2021/05/24 02:07:59;;;;;;;;;;;12.80;78.00;;;;;;4304008;33;20004;-75
2021/05/24 02:10:32;;;;;;;;;;;12.80;77.90;;;;;;4317114;33;20013;-74
2021/05/24 02:13:00;;;;;;;;;;;12.80;78.00;;;;;;4303980;33;20028;-75
2021/05/24 02:15:32;;;;;;;;;;;12.80;78.10;;;;;;4304327;33;20016;-75
2021/05/24 02:17:59;;;;;;;;;;;12.80;78.20;;;;;;4317293;33;20004;-75
2021/05/24 02:20:27;;;;;;;;;;;12.80;78.30;;;;;;4317255;33;20039;-74
2021/05/24 02:22:55;;;;;;;;;;;12.70;78.10;;;;;;4303635;33;19994;-75
2021/05/24 02:25:25;;;;;;;;;;;12.80;78.10;;;;;;4291759;33;20001;-75
2021/05/24 02:27:55;;;;;;;;;;;12.80;78.30;;;;;;4304021;33;20005;-75
2021/05/24 02:30:22;;;;;;;;;;;12.80;78.30;;;;;;4316999;33;20562;-75
2021/05/24 02:32:50;;;;;;;;;;;12.80;78.20;;;;;;4293275;33;20054;-74
2021/05/24 02:35:18;;;;;;;;;;;12.80;78.10;;;;;;4295069;33;20013;-75
2021/05/24 02:37:46;;;;;;;;;;;12.80;78.10;;;;;;4320290;33;20010;-74
2021/05/24 02:40:14;;;;;;;;;;;12.90;78.10;;;;;;4319628;33;20410;-74
2021/05/24 02:42:43;;;;;;;;;;;12.80;78.20;;;;;;4319683;33;20396;-75
2021/05/24 02:45:14;;;;;;;;;;;12.90;78.20;;;;;;4319829;33;19998;-74
2021/05/24 02:47:45;;;;;;;;;;;12.80;78.10;;;;;;4307177;33;20083;-75
2021/05/24 02:50:18;;;;;;;;;;;12.90;78.20;;;;;;4306859;33;20010;-75
2021/05/24 02:52:48;;;;;;;;;;;12.80;78.10;;;;;;4294945;33;20061;-74
2021/05/24 02:55:21;;;;;;;;;;;12.80;78.20;;;;;;4306829;33;20350;-75
2021/05/24 02:57:48;;;;;;;;;;;12.80;78.30;;;;;;4306410;33;20006;-74
2021/05/24 03:00:17;;;;;;;;;;;12.80;78.30;;;;;;4306619;33;20354;-74
2021/05/24 03:02:49;;;;;;;;;;;12.80;78.10;;;;;;4306172;33;20320;-75
2021/05/24 03:05:20;;;;;;;;;;;12.80;78.10;;;;;;4301091;33;20018;-75
2021/05/24 03:07:48;;;;;;;;;;;12.80;78.00;;;;;;4319893;33;20024;-75
2021/05/24 03:10:19;;;;;;;;;;;12.80;78.20;;;;;;4306222;33;20354;-74
2021/05/24 03:12:47;;;;;;;;;;;12.80;78.20;;;;;;4319777;33;20023;-74
2021/05/24 03:15:17;;;;;;;;;;;12.80;78.20;;;;;;4319369;33;20033;-75
2021/05/24 03:17:44;;;;;;;;;;;12.80;78.20;;;;;;4305863;33;20021;-74
2021/05/24 03:20:12;;;;;;;;;;;12.80;78.20;;;;;;4306645;33;20417;-75
2021/05/24 03:22:40;;;;;;;;;;;12.80;78.20;;;;;;4319448;33;20020;-75
2021/05/24 03:25:08;;;;;;;;;;;12.80;78.10;;;;;;4306304;33;20355;-74
2021/05/24 03:27:38;;;;;;;;;;;12.80;78.30;;;;;;4306204;33;20039;-75
2021/05/24 03:30:08;;;;;;;;;;;12.80;78.30;;;;;;4306021;33;20002;-75
2021/05/24 03:32:36;;;;;;;;;;;12.80;78.40;;;;;;4319364;33;20013;-75
2021/05/24 03:35:03;;;;;;;;;;;12.80;78.40;;;;;;4319075;33;20028;-75
2021/05/24 03:37:34;;;;;;;;;;;12.70;78.40;;;;;;4319281;33;20010;-75
2021/05/24 03:40:05;;;;;;;;;;;12.70;78.50;;;;;;4319155;33;20470;-75
2021/05/24 03:42:32;;;;;;;;;;;12.70;78.30;;;;;;4305995;33;20433;-75
2021/05/24 03:45:01;;;;;;;;;;;12.70;78.40;;;;;;4318181;33;20006;-75
2021/05/24 03:47:29;;;;;;;;;;;12.70;78.40;;;;;;4319213;33;20020;-75
2021/05/24 03:49:57;;;;;;;;;;;12.80;78.50;;;;;;4319303;33;20006;-75
2021/05/24 03:52:24;;;;;;;;;;;12.70;78.50;;;;;;4318949;33;20001;-75
2021/05/24 03:54:51;;;;;;;;;;;12.70;78.40;;;;;;4319010;33;20012;-75
2021/05/24 03:57:21;;;;;;;;;;;12.70;78.40;;;;;;4319086;33;20014;-75
2021/05/24 03:59:53;;;;;;;;;;;12.80;78.40;;;;;;4306123;33;20026;-75
2021/05/24 04:02:20;;;;;;;;;;;12.80;78.30;;;;;;4305517;33;20024;-74
2021/05/24 04:04:56;;;;;;;;;;;12.80;78.20;;;;;;4305701;33;20005;-75
2021/05/24 04:07:24;;;;;;;;;;;12.80;78.10;;;;;;4293626;33;20016;-75
2021/05/24 04:09:54;;;;;;;;;;;12.80;78.10;;;;;;4318283;33;20442;-75
2021/05/24 04:12:26;;;;;;;;;;;12.80;78.10;;;;;;4305322;33;20017;-75
2021/05/24 04:14:56;;;;;;;;;;;12.80;78.10;;;;;;4318468;33;20014;-75
2021/05/24 04:17:33;;;;;;;;;;;12.90;78.00;;;;;;4305760;33;20010;-75
2021/05/24 04:20:03;;;;;;;;;;;12.90;78.10;;;;;;4318885;33;20121;-75
2021/05/24 04:22:33;;;;;;;;;;;12.80;77.90;;;;;;4305031;33;20430;-75
2021/05/24 04:25:01;;;;;;;;;;;12.90;77.90;;;;;;4305287;33;20015;-75
2021/05/24 04:27:28;;;;;;;;;;;12.90;77.80;;;;;;4305202;33;19998;-75
2021/05/24 04:29:58;;;;;;;;;;;12.90;78.00;;;;;;4318641;33;20006;-75
2021/05/24 04:32:26;;;;;;;;;;;12.90;78.00;;;;;;4293113;33;20354;-75
2021/05/24 04:34:56;;;;;;;;;;;12.90;78.10;;;;;;4305207;33;20010;-75
2021/05/24 04:37:23;;;;;;;;;;;12.90;78.20;;;;;;4318294;33;20075;-75
2021/05/24 04:39:50;;;;;;;;;;;12.90;78.20;;;;;;4318067;33;20010;-75
2021/05/24 04:42:22;;;;;;;;;;;12.90;78.20;;;;;;4318438;33;20418;-75
2021/05/24 04:44:52;;;;;;;;;;;12.90;78.20;;;;;;4304817;33;20396;-75
2021/05/24 04:47:19;;;;;;;;;;;12.80;78.10;;;;;;4318084;33;20411;-75
2021/05/24 04:49:49;;;;;;;;;;;12.80;78.20;;;;;;4317586;33;20057;-75
2021/05/24 04:52:17;;;;;;;;;;;12.80;78.20;;;;;;4317793;33;20376;-75
2021/05/24 04:54:45;;;;;;;;;;;12.80;78.30;;;;;;4304949;33;20010;-75
2021/05/24 04:57:12;;;;;;;;;;;12.80;78.20;;;;;;4305046;33;20049;-75
2021/05/24 04:59:39;;;;;;;;;;;12.80;78.30;;;;;;4318263;33;20425;-75
2021/05/24 05:02:07;;;;;;;;;;;12.80;78.30;;;;;;4317825;33;20400;-75
2021/05/24 05:04:34;;;;;;;;;;;12.80;78.10;;;;;;4317903;33;20006;-75
2021/05/24 05:07:01;;;;;;;;;;;12.80;78.10;;;;;;4317901;33;20001;-75
2021/05/24 05:09:31;;;;;;;;;;;12.80;78.10;;;;;;4318171;33;20395;-75
2021/05/24 05:11:58;;;;;;;;;;;12.80;78.10;;;;;;4317788;33;20388;-75
2021/05/24 05:14:25;;;;;;;;;;;12.80;78.10;;;;;;4318262;33;20045;-75
2021/05/24 05:16:53;;;;;;;;;;;12.80;78.00;;;;;;4304704;33;20010;-76
2021/05/24 05:19:20;;;;;;;;;;;12.80;78.00;;;;;;4317791;33;20073;-76
2021/05/24 05:21:48;;;;;;;;;;;12.80;78.10;;;;;;4317803;33;20006;-76
2021/05/24 05:24:17;;;;;;;;;;;12.80;78.20;;;;;;4317887;33;20024;-76
2021/05/24 05:26:47;;;;;;;;;;;12.80;78.30;;;;;;4304318;33;20014;-76
2021/05/24 05:29:16;;;;;;;;;;;12.80;78.30;;;;;;4304813;33;20061;-76
2021/05/24 05:31:43;;;;;;;;;;;12.80;78.30;;;;;;4303767;33;25405;-76
2021/05/24 05:34:10;;;;;;;;;;;12.80;78.30;;;;;;4304379;33;20021;-76
2021/05/24 05:36:40;;;;;;;;;;;12.80;78.30;;;;;;4318085;33;20010;-75
2021/05/24 05:39:10;;;;;;;;;;;12.80;78.50;;;;;;4292272;33;20421;-76
2021/05/24 05:41:42;;;;;;;;;;;12.80;78.50;;;;;;4304667;33;20020;-76
2021/05/24 05:44:09;;;;;;;;;;;12.80;78.50;;;;;;4317126;33;20049;-76
2021/05/24 05:46:41;;;;;;;;;;;12.80;78.50;;;;;;4317392;33;20073;-76
2021/05/24 05:49:13;;;;;;;;;;;12.80;78.50;;;;;;4317553;33;20010;-76
2021/05/24 05:51:42;;;;;;;;;;;12.80;78.50;;;;;;4317712;33;20023;-76
2021/05/24 05:54:17;;;;;;;;;;;12.80;78.40;;;;;;4317408;33;20050;-76
2021/05/24 05:56:49;;;;;;;;;;;12.90;78.40;;;;;;4317272;33;20012;-76
2021/05/24 05:59:20;;;;;;;;;;;12.90;78.30;;;;;;4304696;33;20015;-76
2021/05/24 06:01:49;;;;;;;;;;;12.90;78.40;;;;;;4304142;33;20010;-76
2021/05/24 06:04:21;;;;;;;;;;;12.90;78.60;;;;;;4317013;33;20014;-75
2021/05/24 06:06:53;;;;;;;;;;;12.90;78.40;;;;;;4291342;33;20400;-76
2021/05/24 06:09:23;;;;;;;;;;;12.90;78.40;;;;;;4317570;33;20005;-76
2021/05/24 06:11:55;;;;;;;;;;;12.90;78.50;;;;;;4303657;33;20008;-76
2021/05/24 06:14:31;;;;;;;;;;;12.90;78.50;;;;;;4317524;33;20009;-75
2021/05/24 06:17:04;;;;;;;;;;;12.90;78.50;;;;;;4304344;33;20399;-76
2021/05/24 06:19:33;;;;;;;;;;;12.90;78.40;;;;;;4317251;33;20053;-76
2021/05/24 06:22:08;;;;;;;;;;;12.90;78.40;;;;;;4317198;33;20002;-76
2021/05/24 06:24:35;;;;;;;;;;;12.90;78.40;;;;;;4317023;33;20433;-76
2021/05/24 06:27:03;;;;;;;;;;;12.90;77.90;;;;;;4303977;33;20092;-77
2021/05/24 06:29:35;;;;;;;;;;;12.80;77.20;;;;;;4291774;33;20008;-77
2021/05/24 06:32:06;;;;;;;;;;;12.90;77.70;;;;;;4316826;33;20017;-76
2021/05/24 06:34:33;;;;;;;;;;;12.90;77.50;;;;;;4316749;33;20043;-77
2021/05/24 06:37:05;;;;;;;;;;;12.90;77.10;;;;;;4303563;33;20021;-76
2021/05/24 06:39:32;;;;;;;;;;;12.80;76.90;;;;;;4303620;33;20009;-78
2021/05/24 06:42:02;;;;;;;;;;;12.80;76.80;;;;;;4316991;33;20032;-77
2021/05/24 06:44:34;;;;;;;;;;;12.80;77.60;;;;;;4316081;33;20012;-77
2021/05/24 06:47:07;;;;;;;;;;;12.80;76.70;;;;;;4316527;33;20006;-78
2021/05/24 06:49:40;;;;;;;;;;;12.80;76.90;;;;;;4303662;33;20021;-78
2021/05/24 06:52:11;;;;;;;;;;;12.90;76.90;;;;;;4303566;33;20014;-77
2021/05/24 06:54:38;;;;;;;;;;;12.90;76.90;;;;;;4303878;33;20010;-77
2021/05/24 06:57:07;;;;;;;;;;;12.90;76.50;;;;;;4291216;33;20009;-77
2021/05/24 06:59:38;;;;;;;;;;;12.80;76.40;;;;;;4303102;33;20014;-77
2021/05/24 07:02:11;;;;;;;;;;;12.80;76.60;;;;;;4303376;33;20011;-77
2021/05/24 07:04:38;;;;;;;;;;;12.80;76.70;;;;;;4303384;33;20010;-77
2021/05/24 07:07:05;;;;;;;;;;;12.90;76.70;;;;;;4316717;33;20006;-79
2021/05/24 07:09:36;;;;;;;;;;;12.90;76.40;;;;;;4303280;33;20040;-79
2021/05/24 07:12:03;;;;;;;;;;;12.80;76.40;;;;;;4316814;33;20002;-77
2021/05/24 07:14:31;;;;;;;;;;;12.80;76.40;;;;;;4316639;33;20014;-78
2021/05/24 07:17:03;;;;;;;;;;;12.90;76.80;;;;;;4316663;33;20454;-77
2021/05/24 07:19:32;;;;;;;;;;;12.80;76.60;;;;;;4318700;33;20076;-77
2021/05/24 07:22:00;;;;;;;;;;;12.80;76.80;;;;;;4306195;33;20394;-77
2021/05/24 07:24:29;;;;;;;;;;;12.90;76.90;;;;;;4306345;33;20015;-78
2021/05/24 07:27:00;;;;;;;;;;;12.90;76.90;;;;;;4294301;33;20373;-78
2021/05/24 07:29:33;;;;;;;;;;;12.90;76.90;;;;;;4306715;33;20017;-78
2021/05/24 07:32:08;;;;;;;;;;;12.90;77.20;;;;;;4294089;33;20021;-78
2021/05/24 07:34:36;;;;;;;;;;;12.90;76.60;;;;;;4294091;33;20080;-78
2021/05/24 07:37:03;;;;;;;;;;;12.90;76.70;;;;;;4319432;33;20057;-76
2021/05/24 07:39:32;;;;;;;;;;;12.80;76.40;;;;;;4319244;33;20017;-77
2021/05/24 07:42:06;;;;;;;;;;;12.80;76.50;;;;;;4306121;33;20483;-77
2021/05/24 07:44:38;;;;;;;;;;;12.90;76.90;;;;;;4319409;33;20036;-77
2021/05/24 07:47:08;;;;;;;;;;;12.90;76.60;;;;;;4306133;33;20444;-77
2021/05/24 07:49:37;;;;;;;;;;;12.90;76.20;;;;;;4318637;33;20073;-77
2021/05/24 07:52:04;;;;;;;;;;;12.80;76.40;;;;;;4305965;33;20411;-75
2021/05/24 07:54:37;;;;;;;;;;;12.80;76.60;;;;;;4319047;33;20002;-77
2021/05/24 07:57:06;;;;;;;;;;;12.80;76.10;;;;;;4319293;33;20014;-75
2021/05/24 07:59:39;;;;;;;;;;;12.80;76.20;;;;;;4319221;33;20042;-77
2021/05/24 08:02:07;;;;;;;;;;;12.80;76.40;;;;;;4319116;33;20433;-76
2021/05/24 08:04:34;;;;;;;;;;;12.80;76.60;;;;;;4318703;33;20010;-76
2021/05/24 08:07:01;;;;;;;;;;;12.80;77.00;;;;;;4318914;33;20003;-76
2021/05/24 08:09:36;;;;;;;;;;;12.90;77.10;;;;;;4318939;33;20002;-78
2021/05/24 08:12:13;;;;;;;;;;;12.90;77.40;;;;;;4305924;33;20416;-77
2021/05/24 08:14:45;;;;;;;;;;;12.90;77.70;;;;;;4318998;33;20014;-77
2021/05/24 08:17:18;;;;;;;;;;;12.90;77.70;;;;;;4306351;33;20014;-76
2021/05/24 08:19:48;;;;;;;;;;;12.90;78.10;;;;;;4319048;33;20124;-76
2021/05/24 08:22:18;;;;;;;;;;;12.90;78.50;;;;;;4305612;33;20018;-77
2021/05/24 08:24:49;;;;;;;;;;;12.90;78.90;;;;;;4304900;33;21124;-76
2021/05/24 08:27:16;;;;;;;;;;;12.80;79.20;;;;;;4312911;33;20013;-75
2021/05/24 08:30:13;;;;;;;;;;;12.80;79.60;;;;;;4318135;33;20013;-76
2021/05/24 08:32:44;;;;;;;;;;;12.80;80.60;;;;;;4305103;33;20376;-76
2021/05/24 08:35:14;;;;;;;;;;;12.80;80.70;;;;;;4305644;33;20009;-77
2021/05/24 08:37:49;;;;;;;;;;;12.80;81.00;;;;;;4304933;33;20025;-76
2021/05/24 08:40:22;;;;;;;;;;;12.80;81.60;;;;;;4305513;33;20407;-75
2021/05/24 08:42:55;;;;;;;;;;;12.80;82.10;;;;;;4305719;33;20424;-76
2021/05/24 08:45:27;;;;;;;;;;;12.80;83.10;;;;;;4305242;33;20354;-76
2021/05/24 08:48:02;;;;;;;;;;;12.80;83.10;;;;;;4317906;33;20021;-77
2021/05/24 08:50:32;;;;;;;;;;;12.70;84.20;;;;;;4293354;33;20002;-76
2021/05/24 08:53:01;;;;;;;;;;;12.70;84.10;;;;;;4317919;33;20018;-76
2021/05/24 08:55:29;;;;;;;;;;;12.70;84.80;;;;;;4305150;33;19998;-77
2021/05/24 08:58:04;;;;;;;;;;;12.60;85.90;;;;;;4318296;33;20016;-76
2021/05/24 09:00:33;;;;;;;;;;;12.60;86.10;;;;;;4318375;33;20348;-76
2021/05/24 09:03:03;;;;;;;;;;;12.60;87.20;;;;;;4305343;33;20483;-76
2021/05/24 09:05:33;;;;;;;;;;;12.50;86.90;;;;;;4318293;33;20024;-76
2021/05/24 09:08:02;;;;;;;;;;;12.50;87.70;;;;;;4292466;33;20348;-76
2021/05/24 09:10:35;;;;;;;;;;;12.60;87.80;;;;;;4292960;33;20006;-76
2021/05/24 09:13:12;;;;;;;;;;;12.50;88.40;;;;;;4305111;33;20020;-76
2021/05/24 09:15:42;;;;;;;;;;;12.50;88.00;;;;;;4317818;33;20022;-76
2021/05/24 09:18:17;;;;;;;;;;;12.50;88.70;;;;;;4317981;33;19998;-76
2021/05/24 09:20:49;;;;;;;;;;;12.60;88.40;;;;;;4304581;33;20054;-76
2021/05/24 09:23:22;;;;;;;;;;;12.60;89.50;;;;;;4305229;33;20024;-76
2021/05/24 09:25:51;;;;;;;;;;;12.50;89.60;;;;;;4317985;33;20002;-75
2021/05/24 09:28:24;;;;;;;;;;;12.60;89.70;;;;;;4317428;33;20020;-75
2021/05/24 09:31:12;;;;;;;;;;;12.60;89.50;;;;;;4292368;33;20010;-75
2021/05/24 09:33:50;;;;;;;;;;;12.60;90.00;;;;;;4318020;33;20010;-75
2021/05/24 09:36:23;;;;;;;;;;;12.60;89.50;;;;;;4317791;33;20002;-75
2021/05/24 09:38:56;;;;;;;;;;;12.60;90.10;;;;;;4304042;33;20420;-75
2021/05/24 09:41:24;;;;;;;;;;;12.60;90.30;;;;;;4317311;33;20002;-75
2021/05/24 09:43:56;;;;;;;;;;;12.60;90.20;;;;;;4317617;33;20039;-75
2021/05/24 09:46:24;;;;;;;;;;;12.60;90.50;;;;;;4304185;33;20006;-74
2021/05/24 09:49:02;;;;;;;;;;;12.60;90.40;;;;;;4292574;33;19998;-74
2021/05/24 09:51:31;;;;;;;;;;;12.60;90.60;;;;;;4304759;33;20011;-74
2021/05/24 09:54:01;;;;;;;;;;;12.60;90.40;;;;;;4303714;33;20005;-74
2021/05/24 09:56:30;;;;;;;;;;;12.70;90.40;;;;;;4317035;33;20069;-75
2021/05/24 09:59:00;;;;;;;;;;;12.70;90.90;;;;;;4304027;33;20014;-74
2021/05/24 10:01:35;;;;;;;;;;;12.60;90.80;;;;;;4317191;33;20009;-75
2021/05/24 10:04:08;;;;;;;;;;;12.60;90.70;;;;;;4292181;33;20023;-76
2021/05/24 10:06:35;;;;;;;;;;;12.70;91.10;;;;;;4317518;33;20005;-75
2021/05/24 10:09:06;;;;;;;;;;;12.70;91.30;;;;;;4317374;33;20006;-75
2021/05/24 10:11:34;;;;;;;;;;;12.70;91.30;;;;;;4304553;33;20023;-75
2021/05/24 10:14:03;;;;;;;;;;;12.70;91.20;;;;;;4317352;33;20363;-74
2021/05/24 10:16:36;;;;;;;;;;;12.60;91.30;;;;;;4317338;33;20006;-75
2021/05/24 10:19:04;;;;;;;;;;;12.70;91.40;;;;;;4317338;33;20013;-75
2021/05/24 10:21:31;;;;;;;;;;;12.60;91.20;;;;;;4316986;33;20434;-77
2021/05/24 10:23:58;;;;;;;;;;;12.70;91.50;;;;;;4317161;33;20100;-75
2021/05/24 10:26:28;;;;;;;;;;;12.70;91.30;;;;;;4316962;33;20005;-75
2021/05/24 10:28:56;;;;;;;;;;;12.70;91.60;;;;;;4304135;33;19998;-75
2021/05/24 10:31:28;;;;;;;;;;;12.70;91.30;;;;;;4317091;33;20062;-75
2021/05/24 10:34:07;;;;;;;;;;;12.70;91.60;;;;;;4303956;33;20410;-76
2021/05/24 10:36:34;;;;;;;;;;;12.70;91.40;;;;;;4317215;33;20026;-74
2021/05/24 10:39:14;;;;;;;;;;;12.70;91.30;;;;;;4304195;33;20010;-75
2021/05/24 10:41:43;;;;;;;;;;;12.70;91.30;;;;;;4303332;33;20005;-75
2021/05/24 10:44:11;;;;;;;;;;;12.80;91.30;;;;;;4316837;33;20010;-74
2021/05/24 10:46:41;;;;;;;;;;;12.70;91.40;;;;;;4303769;33;20078;-74
2021/05/24 10:49:14;;;;;;;;;;;12.70;91.70;;;;;;4303769;33;20017;-74
2021/05/24 10:51:48;;;;;;;;;;;12.70;91.80;;;;;;4315890;33;20016;-74
2021/05/24 10:54:21;;;;;;;;;;;12.80;91.90;;;;;;4305146;33;20454;-75
2021/05/24 10:56:58;;;;;;;;;;;12.80;91.70;;;;;;4306938;33;20025;-75
2021/05/24 10:59:45;;;;;;;;;;;12.70;91.70;;;;;;4319544;33;20014;-74
2021/05/24 11:02:15;;;;;;;;;;;12.70;91.70;;;;;;4305952;33;25156;-75
2021/05/24 11:04:54;;;;;;;;;;;12.70;91.80;;;;;;4305967;33;20412;-75
2021/05/24 11:07:35;;;;;;;;;;;12.70;92.00;;;;;;4306072;33;24955;-76
2021/05/24 11:10:12;;;;;;;;;;;12.70;92.00;;;;;;4319837;33;20023;-75
2021/05/24 11:12:43;;;;;;;;;;;12.70;92.20;;;;;;4319194;33;20006;-76
2021/05/24 11:15:11;;;;;;;;;;;12.70;92.30;;;;;;4306558;33;20002;-74
2021/05/24 11:17:57;;;;;;;;;;;12.70;92.10;;;;;;4319536;33;20012;-75
2021/05/24 11:20:32;;;;;;;;;;;12.60;92.10;;;;;;4318723;33;22198;-74
2021/05/24 11:26:09;;;;;;;;;;;12.70;92.60;;;;;;4319376;33;20021;-74
2021/05/24 11:28:54;;;;;;;;;;;12.70;92.50;;;;;;4319550;33;20018;-75
2021/05/24 11:31:34;;;;;;;;;;;12.80;92.50;;;;;;4306223;33;20009;-74
2021/05/24 11:34:13;;;;;;;;;;;12.70;92.50;;;;;;4319555;33;20013;-74
2021/05/24 11:36:56;;;;;;;;;;;12.80;92.20;;;;;;4294159;33;20006;-74
2021/05/24 11:39:37;;;;;;;;;;;12.80;92.00;;;;;;4306406;33;20013;-74
2021/05/24 11:42:14;;;;;;;;;;;12.80;91.90;;;;;;4306424;33;20061;-76
2021/05/24 11:44:48;;;;;;;;;;;12.80;91.70;;;;;;4306942;33;20088;-74
2021/05/24 11:47:19;;;;;;;;;;;12.70;91.50;;;;;;4319100;33;20001;-74
2021/05/24 11:50:02;;;;;;;;;;;12.80;91.60;;;;;;4319037;33;20001;-74
2021/05/24 11:52:35;;;;;;;;;;;12.70;91.50;;;;;;4319045;33;20010;-74
2021/05/24 11:55:06;;;;;;;;;;;12.70;91.30;;;;;;4294239;33;20002;-74
2021/05/24 11:57:39;;;;;;;;;;;12.70;91.20;;;;;;4319081;33;20010;-75
2021/05/24 12:00:10;;;;;;;;;;;12.70;91.20;;;;;;4306036;33;20010;-74
2021/05/24 12:02:46;;;;;;;;;;;12.80;91.20;;;;;;4305592;33;20073;-74
2021/05/24 12:05:27;;;;;;;;;;;12.70;91.10;;;;;;4292770;33;20058;-74
2021/05/24 12:08:02;;;;;;;;;;;12.70;91.10;;;;;;4319027;33;20073;-74
2021/05/24 12:10:35;;;;;;;;;;;12.80;91.10;;;;;;4318497;33;20002;-74
2021/05/24 12:13:08;;;;;;;;;;;12.80;91.00;;;;;;4318351;33;20014;-75
2021/05/24 12:15:41;;;;;;;;;;;12.80;90.80;;;;;;4318515;33;20068;-74
2021/05/24 12:18:13;;;;;;;;;;;12.80;90.80;;;;;;4293587;33;20057;-75
2021/05/24 12:20:42;;;;;;;;;;;12.80;90.90;;;;;;4305615;33;20350;-74
2021/05/24 12:23:09;;;;;;;;;;;12.70;90.60;;;;;;4305214;33;20013;-75
2021/05/24 12:25:44;;;;;;;;;;;12.70;90.70;;;;;;4318604;33;20026;-75
2021/05/24 12:28:14;;;;;;;;;;;12.70;90.70;;;;;;4304603;33;22817;-75
2021/05/24 12:30:43;;;;;;;;;;;12.70;90.50;;;;;;4318151;33;21538;-75
2021/05/24 12:33:11;;;;;;;;;;;12.60;90.50;;;;;;4305115;33;20454;-75
2021/05/24 12:35:44;;;;;;;;;;;12.60;90.40;;;;;;4305218;33;20392;-75
2021/05/24 12:41:01;;;;;;;;;;;12.60;90.60;;;;;;4318184;33;21773;-76
2021/05/24 12:43:29;;;;;;;;;;;12.60;90.50;;;;;;4318639;33;20014;-76
2021/05/24 12:45:58;;;;;;;;;;;12.60;90.30;;;;;;4305154;33;19995;-76
2021/05/24 12:48:39;;;;;;;;;;;12.60;90.20;;;;;;4306812;33;20032;-75
2021/05/24 12:51:17;;;;;;;;;;;12.60;90.60;;;;;;4292997;33;20378;-75
2021/05/24 12:53:51;;;;;;;;;;;12.60;90.60;;;;;;4317954;33;20010;-76
2021/05/24 12:56:21;;;;;;;;;;;12.60;90.30;;;;;;4318394;33;20010;-75
2021/05/24 12:58:48;;;;;;;;;;;12.60;90.10;;;;;;4317682;33;20005;-75
2021/05/24 13:01:28;;;;;;;;;;;12.60;90.20;;;;;;4318015;33;20005;-75
2021/05/24 13:03:57;;;;;;;;;;;12.60;90.20;;;;;;4317848;33;20051;-75
2021/05/24 13:06:24;;;;;;;;;;;12.50;90.30;;;;;;4318111;33;20028;-74
2021/05/24 13:09:00;;;;;;;;;;;12.60;90.30;;;;;;4318142;33;20012;-75
2021/05/24 13:11:47;;;;;;;;;;;12.60;90.30;;;;;;4304879;33;20061;-74
2021/05/24 13:14:27;;;;;;;;;;;12.60;90.50;;;;;;4317520;33;22593;-74
2021/05/24 13:17:12;;;;;;;;;;;12.60;90.60;;;;;;4304270;33;24383;-74
2021/05/24 13:25:49;;;;;;;;;;;12.80;90.40;;;;;;4318027;33;20026;-75
2021/05/24 13:28:47;;;;;;;;;;;12.80;90.30;;;;;;4318030;33;20010;-74
2021/05/24 13:31:24;;;;;;;;;;;12.80;90.50;;;;;;4304553;33;20010;-74
2021/05/24 13:34:00;;;;;;;;;;;12.80;90.70;;;;;;4304415;33;20025;-75
2021/05/24 13:36:30;;;;;;;;;;;12.90;90.60;;;;;;4304382;33;20006;-75
2021/05/24 13:39:05;;;;;;;;;;;12.90;90.40;;;;;;4304601;33;20064;-75
2021/05/24 13:41:33;;;;;;;;;;;12.90;90.40;;;;;;4317779;33;20013;-75
2021/05/24 13:44:03;;;;;;;;;;;13.00;90.50;;;;;;4304004;33;20001;-75
2021/05/24 13:46:36;;;;;;;;;;;13.00;90.40;;;;;;4304560;33;20069;-74
2021/05/24 13:49:06;;;;;;;;;;;13.00;90.40;;;;;;4292410;33;20016;-76
2021/05/24 13:51:33;;;;;;;;;;;13.10;90.40;;;;;;4304687;33;20395;-75
2021/05/24 13:54:01;;;;;;;;;;;13.10;90.40;;;;;;4317487;33;20002;-75
2021/05/24 13:56:28;;;;;;;;;;;13.20;90.60;;;;;;4317498;33;20459;-75
2021/05/24 13:58:55;;;;;;;;;;;13.30;90.60;;;;;;4303853;33;20013;-76
2021/05/24 14:01:25;;;;;;;;;;;13.30;90.40;;;;;;4317366;33;20035;-75
2021/05/24 14:03:55;;;;;;;;;;;13.30;90.00;;;;;;4304134;33;20017;-75
2021/05/24 14:06:22;;;;;;;;;;;13.30;90.30;;;;;;4317253;33;20014;-76
2021/05/24 14:08:49;;;;;;;;;;;13.40;90.20;;;;;;4317157;33;20013;-75
2021/05/24 14:11:23;;;;;;;;;;;13.50;89.90;;;;;;4298271;33;20400;-76
2021/05/24 14:13:50;;;;;;;;;;;13.40;89.90;;;;;;4304095;33;20485;-75
2021/05/24 14:16:19;;;;;;;;;;;13.50;89.50;;;;;;4304015;33;20320;-75
2021/05/24 14:18:48;;;;;;;;;;;13.50;89.50;;;;;;4303926;33;20017;-76
2021/05/24 14:21:15;;;;;;;;;;;13.50;89.10;;;;;;4317086;33;20384;-75
2021/05/24 14:23:43;;;;;;;;;;;13.50;89.20;;;;;;4317113;33;20021;-76
2021/05/24 14:26:11;;;;;;;;;;;13.60;88.80;;;;;;4304182;33;20010;-76
2021/05/24 14:28:41;;;;;;;;;;;13.60;87.50;;;;;;4303017;33;20022;-77
2021/05/24 14:31:10;;;;;;;;;;;13.70;87.90;;;;;;4316919;33;20065;-76
2021/05/24 14:33:40;;;;;;;;;;;13.70;88.10;;;;;;4317298;33;20121;-76
2021/05/24 14:36:08;;;;;;;;;;;13.80;87.90;;;;;;4316714;33;21021;-75
2021/05/24 14:38:35;;;;;;;;;;;13.80;87.60;;;;;;4317213;33;20002;-76
2021/05/24 14:41:05;;;;;;;;;;;13.80;87.30;;;;;;4304075;33;20006;-76
2021/05/24 14:43:33;;;;;;;;;;;13.90;87.10;;;;;;4317316;33;20070;-77
2021/05/24 14:46:02;;;;;;;;;;;13.90;87.00;;;;;;4304204;33;20011;-76
2021/05/24 14:48:30;;;;;;;;;;;14.00;86.80;;;;;;4316906;33;20013;-76
2021/05/24 14:50:57;;;;;;;;;;;14.00;86.20;;;;;;4303595;33;20009;-76